Time;durP1;ratioP1;P1;durP2;ratioP2;P2;SDS_P1;SDS_P2;PMS_P1;PMS_P2;Temp;Humidity;BMP_temperature;BMP_pressure;BME280_temperature;BME280_humidity;BME280_pressure;Samples;Min_cycle;Max_cycle;Signal;HPM_P1;HPM_P2
2021/09/15 05:02:41;;;;;;;7.05;5.78;;;;;;;17.16;61.61;95085.84;4978185;28;20050;-79
2021/09/15 05:05:07;;;;;;;10.02;5.70;;;;;;;17.02;61.52;95079.84;4931084;28;20023;-81
2021/09/15 05:07:33;;;;;;;14.27;6.05;;;;;;;17.15;62.36;95082.41;4928534;28;20435;-80
2021/09/15 05:09:58;;;;;;;12.27;6.05;;;;;;;17.63;60.69;95092.47;4932596;29;20047;-80
2021/09/15 05:12:23;;;;;;;6.85;5.70;;;;;;;18.60;57.55;95084.91;4932306;28;20101;-79
2021/09/15 05:14:49;;;;;;;12.85;5.97;;;;;;;19.57;53.99;95089.28;4970267;28;20023;-81
2021/09/15 05:17:14;;;;;;;7.65;5.15;;;;;;;20.75;50.95;95081.34;4968940;28;20026;-80
2021/09/15 05:19:40;;;;;;;7.50;5.35;;;;;;;21.39;49.31;95078.53;4953080;28;20038;-80
2021/09/15 05:22:05;;;;;;;8.98;5.00;;;;;;;21.61;48.43;95083.16;4951499;28;20046;-81
2021/09/15 05:24:30;;;;;;;8.00;5.60;;;;;;;22.05;47.52;95080.56;4936821;28;20019;-80
2021/09/15 05:26:56;;;;;;;12.23;5.55;;;;;;;21.57;49.10;95084.66;4936513;28;20031;-80
2021/09/15 05:29:21;;;;;;;6.05;4.90;;;;;;;21.67;49.47;95085.66;4968995;28;20833;-79
2021/09/15 05:31:47;;;;;;;6.57;5.43;;;;;;;21.94;48.54;95094.59;4952994;28;20034;-80
2021/09/15 05:34:12;;;;;;;9.65;5.32;;;;;;;23.58;44.98;95082.47;4934822;28;20415;-80
2021/09/15 05:36:38;;;;;;;7.65;5.35;;;;;;;23.85;43.93;95090.44;4953106;28;20081;-80
2021/09/15 05:39:03;;;;;;;19.23;5.97;;;;;;;21.45;49.18;95084.69;4950538;28;20031;-79
2021/09/15 05:41:29;;;;;;;8.57;5.45;;;;;;;22.74;46.50;95088.22;4952745;28;20023;-79
2021/09/15 05:43:54;;;;;;;8.10;5.70;;;;;;;24.26;44.21;95088.19;4951844;28;20043;-80
2021/09/15 05:46:20;;;;;;;8.77;5.82;;;;;;;24.61;43.15;95077.88;4969157;28;20034;-80
2021/09/15 05:48:45;;;;;;;11.00;6.40;;;;;;;24.52;43.51;95087.34;4969105;28;20062;-79
2021/09/15 05:51:10;;;;;;;6.35;5.38;;;;;;;24.55;43.73;95095.59;4950861;28;20416;-81
2021/09/15 05:53:36;;;;;;;7.68;5.45;;;;;;;22.45;47.78;95100.72;4952356;28;20543;-80
2021/09/15 05:56:03;;;;;;;5.55;5.03;;;;;;;20.70;53.95;95094.44;4968319;28;20030;-81
2021/09/15 05:58:29;;;;;;;5.78;5.18;;;;;;;20.25;55.48;95102.84;4952612;28;20032;-80
2021/09/15 06:00:54;;;;;;;6.75;4.85;;;;;;;20.89;54.58;95103.81;4950672;28;20460;-79
2021/09/15 06:03:20;;;;;;;5.70;4.55;;;;;;;21.39;53.71;95096.16;4968468;28;20031;-79
2021/09/15 06:05:45;;;;;;;5.00;4.50;;;;;;;21.64;51.96;95101.91;4951769;28;20047;-80
2021/09/15 06:08:11;;;;;;;4.72;4.43;;;;;;;21.13;50.92;95094.84;4935214;28;20039;-80
2021/09/15 06:10:36;;;;;;;5.03;4.63;;;;;;;22.34;48.88;95097.13;4952807;28;20023;-79
2021/09/15 06:13:01;;;;;;;4.68;4.30;;;;;;;23.63;46.40;95090.47;4951167;28;20031;-80
2021/09/15 06:15:27;;;;;;;4.90;4.10;;;;;;;27.71;37.45;95095.56;4951795;28;20031;-79
2021/09/15 06:17:52;;;;;;;7.57;4.43;;;;;;;28.91;35.26;95091.56;4934428;28;20069;-79
2021/09/15 06:20:18;;;;;;;4.65;4.35;;;;;;;29.67;34.24;95092.31;4952188;28;20043;-79
2021/09/15 06:22:44;;;;;;;6.93;4.30;;;;;;;30.45;32.08;95093.69;4934993;28;20027;-79
2021/09/15 06:25:09;;;;;;;6.57;4.32;;;;;;;31.08;31.68;95088.63;4967913;28;20090;-79
2021/09/15 06:27:36;;;;;;;4.30;4.00;;;;;;;31.25;31.39;95086.16;4951409;28;20043;-79
2021/09/15 06:30:02;;;;;;;5.05;4.28;;;;;;;31.27;30.79;95089.34;4950990;28;20030;-79
2021/09/15 06:32:28;;;;;;;10.77;4.50;;;;;;;31.88;31.00;95080.88;4936002;28;20101;-79
2021/09/15 06:34:54;;;;;;;4.57;4.18;;;;;;;31.51;30.79;95084.59;4968299;28;20480;-79
2021/09/15 06:37:19;;;;;;;8.43;4.30;;;;;;;30.95;31.46;95084.03;4952183;28;20413;-78
2021/09/15 06:39:45;;;;;;;5.05;4.57;;;;;;;32.66;29.08;95087.69;4949972;28;20042;-79
2021/09/15 06:42:12;;;;;;;9.95;4.85;;;;;;;31.12;30.92;95087.72;4968131;28;20031;-78
2021/09/15 06:44:37;;;;;;;5.60;5.07;;;;;;;32.75;29.39;95083.97;4968573;28;20022;-78
2021/09/15 06:47:03;;;;;;;8.85;4.90;;;;;;;32.08;30.12;95093.06;4951349;28;20381;-78
2021/09/15 06:49:28;;;;;;;4.78;4.38;;;;;;;32.59;29.48;95088.13;4951343;28;20023;-78
2021/09/15 06:51:54;;;;;;;7.03;5.45;;;;;;;33.26;28.54;95090.75;4969311;28;20081;-78
2021/09/15 06:54:19;;;;;;;5.00;4.43;;;;;;;32.98;28.76;95084.72;4972679;28;20035;-78
2021/09/15 06:56:45;;;;;;;4.78;4.20;;;;;;;34.12;28.15;95085.63;4954004;28;20037;-78
2021/09/15 06:59:11;;;;;;;4.72;4.43;;;;;;;33.19;28.01;95090.41;4971544;28;20031;-78
2021/09/15 07:01:37;;;;;;;5.50;4.95;;;;;;;34.07;28.05;95091.16;4969203;28;20062;-77
2021/09/15 07:04:02;;;;;;;5.35;4.60;;;;;;;34.41;27.24;95094.66;4939865;28;20126;-78
2021/09/15 07:06:28;;;;;;;4.68;4.28;;;;;;;34.20;26.78;95084.81;4971453;28;20033;-78
2021/09/15 07:08:53;;;;;;;7.00;4.80;;;;;;;33.99;27.07;95081.94;4954847;28;20408;-79
2021/09/15 07:11:19;;;;;;;5.20;4.80;;;;;;;30.46;31.00;95081.91;4939397;28;20041;-78
2021/09/15 07:13:45;;;;;;;12.00;5.57;;;;;;;26.72;36.56;95083.06;4954032;28;20045;-79
2021/09/15 07:16:10;;;;;;;6.78;5.18;;;;;;;26.40;38.16;95084.41;4955484;28;20019;-78
2021/09/15 07:18:36;;;;;;;7.53;4.72;;;;;;;26.31;38.69;95084.16;4969733;28;20050;-79
2021/09/15 07:21:02;;;;;;;5.53;5.13;;;;;;;26.70;38.89;95098.50;4955362;28;20035;-78
2021/09/15 07:23:27;;;;;;;7.05;5.10;;;;;;;25.59;38.95;95085.03;4954168;28;20089;-78
2021/09/15 07:25:53;;;;;;;5.40;4.40;;;;;;;26.62;38.25;95096.34;4971153;28;20018;-78
2021/09/15 07:28:18;;;;;;;4.88;4.55;;;;;;;25.60;39.77;95086.66;4971454;28;20045;-78
2021/09/15 07:30:44;;;;;;;4.90;4.45;;;;;;;25.14;40.33;95098.09;4954118;28;20408;-78
2021/09/15 07:33:09;;;;;;;6.15;4.72;;;;;;;26.15;39.80;95093.13;4955129;28;20071;-78
2021/09/15 07:35:35;;;;;;;5.38;4.63;;;;;;;26.14;38.75;95089.69;4953135;28;20041;-78
2021/09/15 07:38:01;;;;;;;5.53;4.75;;;;;;;26.52;39.80;95103.56;4971782;28;20121;-78
2021/09/15 07:40:26;;;;;;;6.07;4.63;;;;;;;26.22;40.17;95098.22;4970683;28;20054;-78
2021/09/15 07:42:51;;;;;;;5.95;4.65;;;;;;;26.12;39.27;95099.78;4970624;28;20042;-79
2021/09/15 07:45:17;;;;;;;7.00;5.05;;;;;;;25.85;40.73;95096.53;4953855;28;20027;-77
2021/09/15 07:47:43;;;;;;;6.00;4.78;;;;;;;26.62;38.66;95093.69;4971082;28;20377;-79
2021/09/15 07:50:09;;;;;;;5.60;4.55;;;;;;;26.32;38.33;95085.75;4954859;28;20098;-77
2021/09/15 07:52:34;;;;;;;6.85;4.50;;;;;;;25.78;39.54;95092.53;4952457;28;20063;-78
2021/09/15 07:55:00;;;;;;;5.47;4.95;;;;;;;25.39;39.68;95084.97;4970732;28;20023;-78
2021/09/15 07:57:25;;;;;;;6.10;4.30;;;;;;;26.31;39.34;95088.66;4918263;28;20085;-77
2021/09/15 07:59:51;;;;;;;5.05;4.68;;;;;;;26.22;39.13;95088.41;4969072;28;20030;-78
2021/09/15 08:02:16;;;;;;;5.00;4.65;;;;;;;25.61;39.93;95093.56;4968993;28;20505;-77
2021/09/15 08:04:41;;;;;;;5.40;4.80;;;;;;;26.17;38.61;95091.03;4954063;28;20035;-79
2021/09/15 08:07:07;;;;;;;4.97;4.57;;;;;;;25.60;39.58;95097.25;4970100;28;20406;-78
2021/09/15 08:09:32;;;;;;;5.55;4.35;;;;;;;25.32;39.01;95086.25;4971098;28;20117;-78
2021/09/15 08:11:58;;;;;;;7.13;4.57;;;;;;;26.12;39.09;95086.50;4954316;28;20881;-78
2021/09/15 08:14:23;;;;;;;5.70;4.25;;;;;;;25.83;39.15;95089.88;4952490;28;20037;-78
2021/09/15 08:16:49;;;;;;;4.72;4.32;;;;;;;25.68;39.69;95088.00;4972164;28;20026;-79
2021/09/15 08:19:14;;;;;;;10.52;5.22;;;;;;;25.98;40.38;95090.72;4944990;28;20484;-78
2021/09/15 08:21:40;;;;;;;5.38;4.85;;;;;;;26.35;38.35;95093.19;4954982;28;20485;-79
2021/09/15 08:24:06;;;;;;;10.95;4.82;;;;;;;25.86;39.87;95095.47;4936411;28;20435;-78
2021/09/15 08:26:31;;;;;;;7.30;4.68;;;;;;;25.82;39.00;95089.09;4953469;28;20084;-78
2021/09/15 08:28:57;;;;;;;8.23;4.88;;;;;;;26.09;40.00;95083.56;4949239;28;20042;-76
2021/09/15 08:31:22;;;;;;;4.97;4.47;;;;;;;26.63;39.01;95089.19;4936816;28;20054;-77
2021/09/15 08:33:48;;;;;;;8.38;5.38;;;;;;;25.18;39.58;95084.06;4941454;29;20027;-78
2021/09/15 08:36:13;;;;;;;6.80;4.60;;;;;;;26.75;39.48;95092.34;4933233;29;20036;-79
2021/09/15 08:38:39;;;;;;;5.60;5.10;;;;;;;26.15;37.72;95087.81;4953865;28;20019;-79
2021/09/15 08:41:04;;;;;;;5.13;4.78;;;;;;;26.12;38.64;95089.16;4969688;28;20088;-76
2021/09/15 08:43:33;;;;;;;5.55;4.57;;;;;;;25.74;39.96;95086.16;4937237;28;20411;-76
2021/09/15 08:46:00;;;;;;;8.38;4.85;;;;;;;25.51;41.06;95088.22;4951712;28;20030;-76
2021/09/15 08:48:26;;;;;;;6.40;4.70;;;;;;;25.57;41.41;95086.38;4935693;28;20063;-76
2021/09/15 08:50:51;;;;;;;4.88;4.47;;;;;;;26.18;39.99;95074.03;4937018;28;20026;-76
2021/09/15 08:53:20;;;;;;;5.32;4.47;;;;;;;25.62;39.73;95073.91;4968990;28;20026;-77
2021/09/15 08:55:46;;;;;;;4.93;4.53;;;;;;;26.44;39.77;95074.84;4953191;28;20027;-76
2021/09/15 08:58:14;;;;;;;4.38;3.97;;;;;;;26.94;37.61;95064.16;4951532;28;20624;-76
2021/09/15 09:00:39;;;;;;;4.93;4.50;;;;;;;27.41;37.82;95063.75;4936894;28;20058;-76
2021/09/15 09:03:05;;;;;;;5.43;4.90;;;;;;;27.29;37.01;95068.59;4951709;28;20543;-77
2021/09/15 09:05:30;;;;;;;9.10;4.40;;;;;;;27.61;37.82;95068.22;4969352;28;20027;-79
2021/09/15 09:07:55;;;;;;;5.15;4.68;;;;;;;27.42;37.24;95056.56;4936100;28;20022;-78
2021/09/15 09:10:21;;;;;;;5.00;4.60;;;;;;;27.88;36.44;95063.25;4936246;28;20026;-77
2021/09/15 09:12:47;;;;;;;5.55;4.57;;;;;;;28.31;35.77;95067.00;4969877;28;20019;-78
2021/09/15 09:15:26;;;;;;;6.00;5.05;;;;;;;25.54;39.02;95057.69;4967733;28;20469;-79
2021/09/15 09:18:02;;;;;;;5.05;4.60;;;;;;;26.85;37.22;95051.69;4952826;28;20031;-79
2021/09/15 09:20:31;;;;;;;6.82;6.15;;;;;;;28.00;36.88;95060.28;4952001;28;20117;-79
2021/09/15 09:23:02;;;;;;;5.90;5.07;;;;;;;28.00;36.65;95049.63;4969735;28;20030;-79
2021/09/15 09:25:34;;;;;;;11.73;5.85;;;;;;;28.60;34.84;95053.69;4953319;28;20098;-78
2021/09/15 09:27:59;;;;;;;6.72;4.75;;;;;;;28.36;35.69;95042.94;4935014;28;20038;-78
2021/09/15 09:30:36;;;;;;;5.38;4.97;;;;;;;28.58;34.54;95048.63;4933237;29;20058;-79
2021/09/15 09:33:03;;;;;;;8.57;5.50;;;;;;;28.67;35.71;95049.63;4948518;28;20109;-80
2021/09/15 09:35:43;;;;;;;6.93;5.88;;;;;;;28.29;35.50;95037.16;4936753;28;20030;-78
2021/09/15 09:38:19;;;;;;;11.05;5.75;;;;;;;28.77;35.43;95038.88;4967630;28;20081;-79
2021/09/15 09:41:00;;;;;;;16.00;7.80;;;;;;;28.92;35.87;95029.13;4950632;28;20710;-79
2021/09/15 09:43:26;;;;;;;5.22;4.55;;;;;;;28.38;34.61;95026.69;4953578;28;20030;-79
2021/09/15 09:45:52;;;;;;;7.10;4.82;;;;;;;28.88;34.72;95028.09;4934379;28;20077;-76
2021/09/15 09:48:40;;;;;;;8.05;5.47;;;;;;;29.41;34.33;95032.28;4936099;28;20704;-79
2021/09/15 09:51:37;;;;;;;17.77;8.07;;;;;;;29.16;33.86;95024.56;4951833;28;20030;-79
2021/09/15 09:54:15;;;;;;;7.10;5.47;;;;;;;29.31;34.12;95018.31;4949391;29;20039;-78
2021/09/15 09:56:42;;;;;;;8.48;5.53;;;;;;;29.27;33.08;95012.72;4950793;29;20038;-77
2021/09/15 09:59:07;;;;;;;11.52;5.55;;;;;;;29.52;32.20;95007.06;4914800;28;20089;-79
2021/09/15 10:02:00;;;;;;;4.90;4.25;;;;;;;29.19;30.85;95010.66;4952070;28;20043;-79
2021/09/15 10:04:28;;;;;;;11.50;4.85;;;;;;;29.05;33.00;95020.44;4952600;28;20059;-79
2021/09/15 10:06:53;;;;;;;19.20;9.27;;;;;;;29.24;34.20;95007.94;4951146;28;20057;-79
2021/09/15 10:09:19;;;;;;;8.85;5.45;;;;;;;29.34;33.37;95015.06;4936583;28;20062;-79
2021/09/15 10:11:44;;;;;;;31.88;11.93;;;;;;;29.85;32.94;95001.81;4950549;28;20031;-79
2021/09/15 10:14:14;;;;;;;42.58;9.73;;;;;;;29.81;31.38;94998.91;4936391;28;20023;-78
2021/09/15 10:16:44;;;;;;;8.65;4.47;;;;;;;29.23;31.01;94993.78;4951025;28;20101;-79
2021/09/15 10:19:10;;;;;;;4.97;4.07;;;;;;;28.89;31.52;94998.47;4968401;28;20066;-81
2021/09/15 10:21:35;;;;;;;19.23;7.18;;;;;;;29.65;31.60;94982.31;4951704;28;20074;-80
2021/09/15 10:24:02;;;;;;;17.30;6.85;;;;;;;29.85;31.53;94973.22;4950953;28;20029;-81
2021/09/15 10:26:40;;;;;;;16.13;7.55;;;;;;;30.27;30.62;94986.44;4954235;28;20034;-79
2021/09/15 10:29:27;;;;;;;5.40;4.38;;;;;;;29.86;31.14;94984.72;4970926;28;20042;-80
2021/09/15 10:31:59;;;;;;;16.83;7.70;;;;;;;29.75;30.45;94990.19;4956691;28;20026;-80
2021/09/15 10:34:39;;;;;;;9.63;4.97;;;;;;;29.56;30.39;94984.03;4955150;28;20510;-81
2021/09/15 10:37:10;;;;;;;7.00;4.78;;;;;;;29.47;31.11;94983.13;4972493;28;20026;-82
2021/09/15 10:40:08;;;;;;;7.05;4.53;;;;;;;27.37;33.04;94980.19;4972150;28;20041;-84
2021/09/15 10:42:33;;;;;;;7.45;4.90;;;;;;;29.34;32.47;94977.69;4953124;28;20051;-80
2021/09/15 10:45:19;;;;;;;11.85;5.32;;;;;;;29.38;31.79;94982.13;4964278;28;20061;-82
2021/09/15 10:47:53;;;;;;;6.00;4.88;;;;;;;29.09;32.98;94982.22;4942397;28;20111;-79
2021/09/15 10:50:28;;;;;;;5.45;4.32;;;;;;;28.73;31.31;94968.53;4943267;28;20034;-81
2021/09/15 10:53:13;;;;;;;6.40;4.32;;;;;;;28.76;31.05;94957.28;4965410;28;20027;-82
2021/09/15 10:55:52;;;;;;;8.55;5.30;;;;;;;29.45;31.56;94958.56;4959220;28;20126;-80
2021/09/15 10:58:20;;;;;;;6.15;4.40;;;;;;;29.54;31.99;94956.81;4966085;28;20118;-82
2021/09/15 11:00:50;;;;;;;5.88;4.43;;;;;;;29.83;31.94;94946.00;4967765;28;20031;-79
2021/09/15 11:03:27;;;;;;;4.88;4.32;;;;;;;30.25;30.92;94950.38;4969010;28;20035;-80
2021/09/15 11:05:53;;;;;;;5.25;4.75;;;;;;;29.95;31.39;94940.22;4951960;28;20542;-80
2021/09/15 11:08:24;;;;;;;4.22;3.92;;;;;;;29.97;30.64;94940.69;4951761;28;20041;-83
2021/09/15 11:10:50;;;;;;;8.60;4.40;;;;;;;29.41;31.87;94932.72;4972246;28;20041;-81
2021/09/15 11:13:36;;;;;;;7.28;5.93;;;;;;;28.14;31.63;94934.16;4954596;28;20042;-85
2021/09/15 11:16:30;;;;;;;4.80;4.30;;;;;;;28.20;31.62;94935.69;4954364;28;20034;-85
2021/09/15 11:19:15;;;;;;;5.40;4.90;;;;;;;28.81;32.84;94921.72;4955690;28;20120;-81
2021/09/15 11:22:00;;;;;;;5.13;4.60;;;;;;;29.50;31.57;94917.66;4940472;28;20097;-81
2021/09/15 11:24:30;;;;;;;4.55;3.92;;;;;;;29.42;30.75;94919.09;4937767;28;20031;-82
2021/09/15 11:27:05;;;;;;;10.43;4.50;;;;;;;29.57;31.77;94918.09;4955904;28;20027;-79
2021/09/15 11:29:38;;;;;;;4.47;4.05;;;;;;;29.66;32.48;94919.81;4953795;28;20034;-81
2021/09/15 11:32:11;;;;;;;6.28;4.45;;;;;;;29.31;31.61;94915.00;4966622;28;20518;-81
2021/09/15 11:34:41;;;;;;;4.30;3.90;;;;;;;29.58;32.26;94907.09;4935789;28;20035;-81
2021/09/15 11:37:16;;;;;;;5.18;4.68;;;;;;;28.80;30.86;94903.38;4953440;28;20488;-81
2021/09/15 11:39:41;;;;;;;4.30;4.00;;;;;;;29.31;32.67;94898.97;4971519;28;20031;-80
2021/09/15 11:42:07;;;;;;;6.13;4.40;;;;;;;29.41;31.69;94896.13;4950200;29;20039;-82
2021/09/15 11:44:33;;;;;;;6.30;4.07;;;;;;;29.71;31.20;94893.00;4964536;28;20026;-80
2021/09/15 11:47:02;;;;;;;5.38;4.40;;;;;;;28.27;30.73;94898.06;4953598;28;20019;-82
2021/09/15 11:49:33;;;;;;;4.72;4.28;;;;;;;27.85;31.34;94895.22;4954881;28;20051;-79
2021/09/15 11:52:00;;;;;;;4.68;4.13;;;;;;;28.67;30.40;94884.28;4963111;28;20065;-82
2021/09/15 11:54:27;;;;;;;6.28;4.82;;;;;;;29.34;30.00;94887.72;4938578;28;20034;-79
2021/09/15 11:56:54;;;;;;;5.15;4.30;;;;;;;29.43;30.63;94891.31;4954408;28;20423;-81
2021/09/15 11:59:20;;;;;;;3.88;3.58;;;;;;;29.80;30.15;94885.91;4953372;28;20463;-80
2021/09/15 12:01:45;;;;;;;5.60;4.25;;;;;;;29.19;31.17;94888.69;4938243;28;20047;-80
2021/09/15 12:04:15;;;;;;;6.28;4.22;;;;;;;29.00;30.81;94887.06;4937119;28;20038;-79
2021/09/15 12:06:41;;;;;;;4.60;3.70;;;;;;;29.13;30.38;94878.34;4953988;28;20058;-80
2021/09/15 12:09:08;;;;;;;4.32;3.85;;;;;;;29.09;30.04;94880.81;4936898;28;20432;-81
2021/09/15 12:11:35;;;;;;;4.22;3.83;;;;;;;29.03;29.79;94878.50;4970723;28;20062;-81
2021/09/15 12:14:02;;;;;;;5.03;3.60;;;;;;;29.21;29.94;94870.53;4954409;28;20042;-80
2021/09/15 12:16:33;;;;;;;6.65;4.03;;;;;;;28.77;30.30;94876.16;4921922;28;20025;-83
2021/09/15 12:18:59;;;;;;;4.50;4.10;;;;;;;29.13;29.73;94873.03;4923162;28;20038;-80
2021/09/15 12:21:25;;;;;;;3.92;3.63;;;;;;;29.11;29.97;94864.53;4936672;28;20097;-82
2021/09/15 12:23:51;;;;;;;4.20;3.80;;;;;;;29.20;30.55;94860.91;4953850;28;20038;-81
2021/09/15 12:26:24;;;;;;;7.00;3.90;;;;;;;29.13;29.58;94860.47;4936947;28;20505;-80
2021/09/15 12:29:08;;;;;;;4.63;3.63;;;;;;;29.34;30.28;94854.88;4937559;28;20023;-80
2021/09/15 12:31:38;;;;;;;5.18;3.72;;;;;;;29.51;29.68;94860.50;4939707;28;20054;-79
2021/09/15 12:34:04;;;;;;;4.85;4.13;;;;;;;28.64;30.33;94844.06;4952593;28;20467;-83
2021/09/15 12:36:29;;;;;;;4.05;3.63;;;;;;;28.43;29.99;94845.38;4938070;28;20023;-82
2021/09/15 12:38:57;;;;;;;6.20;3.85;;;;;;;28.38;29.98;94840.91;4952220;28;20031;-80
2021/09/15 12:41:27;;;;;;;5.32;3.90;;;;;;;29.01;29.82;94837.97;4938201;28;20031;-81
2021/09/15 12:44:03;;;;;;;5.75;4.18;;;;;;;29.07;30.56;94831.47;4936338;28;20041;-81
2021/09/15 12:46:30;;;;;;;5.03;3.63;;;;;;;29.17;30.01;94837.47;4953100;28;20604;-80
2021/09/15 12:48:56;;;;;;;4.35;3.97;;;;;;;28.85;30.62;94836.59;4952305;28;20034;-79
2021/09/15 12:51:23;;;;;;;5.57;3.70;;;;;;;28.81;30.58;94830.25;4952277;28;20430;-79
2021/09/15 12:53:51;;;;;;;5.05;4.05;;;;;;;28.75;30.14;94833.00;4953401;28;20031;-78
2021/09/15 12:56:19;;;;;;;4.20;3.65;;;;;;;29.43;30.29;94827.22;4936542;28;20053;-81
2021/09/15 12:58:44;;;;;;;6.00;4.00;;;;;;;29.49;30.46;94819.91;4953534;28;20034;-79
2021/09/15 13:01:19;;;;;;;5.85;3.90;;;;;;;29.16;30.40;94824.41;4935803;28;20050;-78
2021/09/15 13:03:44;;;;;;;4.30;3.92;;;;;;;29.24;31.15;94821.09;4937091;28;20121;-78
2021/09/15 13:06:14;;;;;;;4.13;3.72;;;;;;;28.96;30.06;94822.06;4937152;28;20030;-80
2021/09/15 13:08:47;;;;;;;5.95;4.00;;;;;;;28.56;30.53;94824.16;4920341;28;20428;-80
2021/09/15 13:11:12;;;;;;;4.85;3.83;;;;;;;28.34;31.81;94821.22;4937736;28;20027;-82
2021/09/15 13:13:38;;;;;;;4.25;3.95;;;;;;;28.52;31.75;94817.78;4920002;28;20027;-81
2021/09/15 13:16:03;;;;;;;9.15;4.38;;;;;;;28.21;30.97;94820.03;4952987;28;20074;-80
2021/09/15 13:18:29;;;;;;;4.53;4.13;;;;;;;28.33;31.22;94821.50;4967969;28;20495;-79
2021/09/15 13:20:54;;;;;;;4.35;3.47;;;;;;;28.25;31.17;94820.28;4957199;28;20030;-79
2021/09/15 13:23:20;;;;;;;3.92;3.63;;;;;;;28.62;31.19;94822.19;4921026;28;20027;-80
2021/09/15 13:25:45;;;;;;;4.03;3.72;;;;;;;28.51;31.30;94821.53;4951970;28;20035;-79
2021/09/15 13:28:11;;;;;;;6.85;4.25;;;;;;;28.49;31.76;94815.69;4936827;28;20019;-78
2021/09/15 13:30:36;;;;;;;4.15;3.75;;;;;;;28.54;31.86;94820.19;4932226;28;20117;-78
2021/09/15 13:33:02;;;;;;;3.97;3.70;;;;;;;28.85;30.68;94825.94;4945573;28;20030;-79
2021/09/15 13:35:27;;;;;;;4.60;3.45;;;;;;;28.55;31.25;94816.41;4947957;28;20030;-78
2021/09/15 13:37:53;;;;;;;3.85;3.55;;;;;;;28.26;32.19;94813.84;4946749;28;20042;-77
2021/09/15 13:40:18;;;;;;;4.75;4.15;;;;;;;27.83;32.66;94814.81;4951119;28;20027;-80
2021/09/15 13:42:44;;;;;;;7.38;4.10;;;;;;;27.74;33.12;94807.44;4951299;28;20014;-80
2021/09/15 13:45:15;;;;;;;5.80;4.32;;;;;;;27.69;32.95;94812.81;4933546;28;20042;-82
2021/09/15 13:47:43;;;;;;;5.32;4.25;;;;;;;27.55;33.22;94803.88;4949289;28;20046;-82
2021/09/15 13:50:12;;;;;;;5.88;4.18;;;;;;;27.55;33.18;94808.44;4935744;28;20042;-83
2021/09/15 13:52:37;;;;;;;7.68;4.18;;;;;;;27.54;32.76;94806.84;4949668;28;20069;-78
2021/09/15 13:55:03;;;;;;;5.78;4.47;;;;;;;27.51;33.72;94802.88;4952190;28;20070;-77
2021/09/15 13:57:28;;;;;;;10.75;5.10;;;;;;;27.27;33.87;94801.97;4951119;28;20038;-78
2021/09/15 13:59:53;;;;;;;5.80;4.28;;;;;;;27.20;33.70;94804.94;4934696;28;20042;-78
2021/09/15 14:02:19;;;;;;;7.35;4.32;;;;;;;27.09;34.81;94810.63;4913743;29;20130;-78
2021/09/15 14:04:44;;;;;;;4.50;4.10;;;;;;;26.96;34.31;94813.91;4937069;29;20046;-78
2021/09/15 14:07:10;;;;;;;6.50;4.32;;;;;;;27.05;33.69;94812.25;4946688;29;20098;-79
2021/09/15 14:09:35;;;;;;;6.28;4.20;;;;;;;27.24;33.34;94808.66;4932112;29;20038;-78
2021/09/15 14:12:01;;;;;;;5.88;4.03;;;;;;;27.18;34.29;94807.09;4933098;29;20034;-79
2021/09/15 14:14:26;;;;;;;7.13;4.30;;;;;;;26.81;33.87;94803.38;4947900;29;20583;-80
2021/09/15 14:16:52;;;;;;;5.00;3.70;;;;;;;26.64;34.35;94809.81;4933287;29;20074;-81
2021/09/15 14:19:17;;;;;;;5.95;4.35;;;;;;;26.40;35.41;94800.09;4932362;29;20429;-79
2021/09/15 14:21:43;;;;;;;4.88;4.45;;;;;;;26.39;35.40;94809.16;4932207;29;20439;-79
2021/09/15 14:24:08;;;;;;;7.45;4.93;;;;;;;26.42;36.09;94809.41;4949048;29;20031;-79
2021/09/15 14:26:34;;;;;;;9.43;4.07;;;;;;;26.79;35.06;94816.09;4931363;29;20030;-79
2021/09/15 14:29:00;;;;;;;5.30;4.35;;;;;;;26.89;35.52;94821.41;4933557;29;20126;-81
2021/09/15 14:31:25;;;;;;;4.32;3.92;;;;;;;26.83;34.62;94811.88;4947419;29;20559;-84
2021/09/15 14:33:51;;;;;;;8.40;3.85;;;;;;;26.68;35.52;94805.53;4949567;29;20031;-82
2021/09/15 14:36:16;;;;;;;5.78;4.30;;;;;;;26.70;35.07;94816.69;4909186;29;20131;-77
2021/09/15 14:38:43;;;;;;;4.45;4.03;;;;;;;26.84;35.08;94824.91;4944907;29;20028;-79
2021/09/15 14:41:09;;;;;;;5.20;3.92;;;;;;;26.81;35.96;94824.66;4948703;29;20023;-79
2021/09/15 14:43:35;;;;;;;6.10;4.13;;;;;;;26.86;36.44;94821.97;4936672;28;20821;-80
2021/09/15 14:46:00;;;;;;;13.25;4.97;;;;;;;26.84;36.10;94816.13;4926351;29;20087;-79
2021/09/15 14:48:26;;;;;;;6.90;3.97;;;;;;;26.85;35.78;94823.81;4919913;29;20400;-85
2021/09/15 14:50:51;;;;;;;8.52;4.05;;;;;;;26.84;35.78;94821.44;4947350;29;20035;-79
2021/09/15 14:53:17;;;;;;;6.72;4.47;;;;;;;26.77;36.16;94819.06;4944197;29;20022;-81
2021/09/15 14:55:44;;;;;;;6.97;4.43;;;;;;;26.46;36.65;94822.91;4940082;29;20504;-83
2021/09/15 14:58:09;;;;;;;6.25;4.50;;;;;;;26.38;36.28;94826.97;4951268;28;20042;-81
2021/09/15 15:00:35;;;;;;;6.00;4.05;;;;;;;26.42;36.78;94822.69;4963334;28;20031;-79
2021/09/15 15:03:00;;;;;;;6.00;3.75;;;;;;;26.70;36.97;94834.50;4951674;28;20034;-80
2021/09/15 15:05:26;;;;;;;4.95;4.18;;;;;;;26.68;36.83;94840.09;4949333;28;20031;-81
2021/09/15 15:07:51;;;;;;;7.88;4.50;;;;;;;26.61;37.31;94834.31;4934637;28;20517;-83
2021/09/15 15:10:18;;;;;;;7.32;4.10;;;;;;;26.56;37.10;94834.31;4961690;28;20402;-78
2021/09/15 15:12:43;;;;;;;3.90;3.70;;;;;;;26.52;37.18;94840.47;4933890;28;20073;-82
2021/09/15 15:15:09;;;;;;;9.38;4.43;;;;;;;26.55;36.82;94837.25;4950841;28;20032;-80
2021/09/15 15:17:38;;;;;;;8.55;4.32;;;;;;;26.45;37.32;94829.31;4936665;28;20070;-78
2021/09/15 15:20:05;;;;;;;8.98;5.03;;;;;;;26.34;37.41;94828.56;4938157;28;20037;-81
2021/09/15 15:22:32;;;;;;;7.30;4.55;;;;;;;26.24;37.80;94838.41;4952711;28;20038;-79
2021/09/15 15:25:03;;;;;;;11.75;4.88;;;;;;;26.17;38.08;94826.22;4955112;28;20054;-80
2021/09/15 15:27:29;;;;;;;8.95;4.78;;;;;;;26.11;38.13;94834.44;4939462;28;20149;-82
2021/09/15 15:29:57;;;;;;;5.30;4.43;;;;;;;26.01;38.53;94835.25;4937679;28;20510;-84
2021/09/15 15:32:24;;;;;;;8.40;4.90;;;;;;;25.79;39.14;94834.78;4953618;28;20026;-86
2021/09/15 15:34:49;;;;;;;18.55;5.57;;;;;;;25.75;39.33;94843.56;4940315;28;20030;-85
2021/09/15 15:37:14;;;;;;;6.90;4.57;;;;;;;25.65;39.97;94842.50;4934694;28;20505;-86
2021/09/15 15:39:40;;;;;;;15.65;4.90;;;;;;;25.55;40.40;94847.03;4953877;28;20504;-84
2021/09/15 15:42:05;;;;;;;13.40;5.30;;;;;;;25.38;40.60;94831.34;4955439;28;20065;-85
2021/09/15 15:44:31;;;;;;;11.68;4.60;;;;;;;25.29;40.92;94851.50;4937069;28;20117;-85
2021/09/15 15:46:56;;;;;;;11.68;4.80;;;;;;;25.26;41.19;94846.72;4954626;28;20027;-85
2021/09/15 15:49:22;;;;;;;6.68;4.38;;;;;;;25.06;41.63;94854.66;4950542;29;20035;-85
2021/09/15 15:51:47;;;;;;;5.47;4.93;;;;;;;24.95;42.36;94847.72;4965797;28;20039;-85
2021/09/15 15:54:13;;;;;;;9.00;5.00;;;;;;;24.84;42.52;94843.47;4938309;28;20418;-86
2021/09/15 15:56:38;;;;;;;15.95;5.28;;;;;;;24.67;43.10;94849.78;4953911;28;20050;-86
2021/09/15 15:59:03;;;;;;;22.75;5.70;;;;;;;24.60;43.26;94849.22;4942002;28;20027;-85
2021/09/15 16:01:29;;;;;;;14.15;5.82;;;;;;;24.52;43.29;94849.72;4948644;29;20078;-82
2021/09/15 16:03:54;;;;;;;14.75;5.20;;;;;;;24.48;43.33;94850.50;4950742;29;20105;-82
2021/09/15 16:06:20;;;;;;;18.70;5.13;;;;;;;24.38;43.60;94851.25;4948877;29;20023;-83
2021/09/15 16:08:46;;;;;;;29.95;5.40;;;;;;;24.24;43.91;94849.34;4919133;29;20134;-84
2021/09/15 16:11:12;;;;;;;17.95;5.57;;;;;;;24.11;44.37;94846.09;4949467;29;20031;-84
2021/09/15 16:13:37;;;;;;;13.55;4.85;;;;;;;23.73;47.57;94843.72;4950307;29;20034;-84
2021/09/15 16:16:03;;;;;;;8.15;4.85;;;;;;;23.41;49.64;94851.69;4918634;29;20113;-84
2021/09/15 16:18:30;;;;;;;11.40;5.10;;;;;;;23.22;49.92;94850.44;4918753;29;20126;-85
2021/09/15 16:20:56;;;;;;;9.32;4.70;;;;;;;23.09;51.29;94853.50;4951380;28;20042;-83
2021/09/15 16:23:22;;;;;;;10.02;5.05;;;;;;;22.77;53.45;94858.72;4930945;29;20031;-80
2021/09/15 16:25:47;;;;;;;6.95;4.97;;;;;;;22.63;53.05;94857.50;4950285;28;20027;-81
2021/09/15 16:28:13;;;;;;;14.23;5.05;;;;;;;22.34;53.44;94854.28;4962377;28;20363;-81
2021/09/15 16:30:38;;;;;;;6.75;5.50;;;;;;;22.27;53.74;94856.28;4947546;29;20200;-80
2021/09/15 16:33:04;;;;;;;12.38;5.10;;;;;;;22.27;54.55;94855.50;4930868;29;20043;-80
2021/09/15 16:35:30;;;;;;;6.72;4.82;;;;;;;21.99;54.46;94859.88;4948952;29;20063;-84